sensor_id;sensor_type;location;lat;lon;timestamp;temperature;humidity
1383;DHT22;685;47.196;11.880;2023-03-12T00:02:12;3.10;99.90
1383;DHT22;685;47.196;11.880;2023-03-12T00:04:39;3.00;99.90
1383;DHT22;685;47.196;11.880;2023-03-12T00:07:06;2.90;99.90
1383;DHT22;685;47.196;11.880;2023-03-12T00:09:35;2.80;99.90
1383;DHT22;685;47.196;11.880;2023-03-12T00:12:02;2.70;99.90
1383;DHT22;685;47.196;11.880;2023-03-12T00:14:31;2.60;99.90
1383;DHT22;685;47.196;11.880;2023-03-12T00:16:58;2.80;99.90
1383;DHT22;685;47.196;11.880;2023-03-12T00:19:25;2.70;99.90
1383;DHT22;685;47.196;11.880;2023-03-12T00:21:52;2.90;99.90
1383;DHT22;685;47.196;11.880;2023-03-12T00:24:19;2.70;99.90
1383;DHT22;685;47.196;11.880;2023-03-12T00:26:45;2.10;99.90
1383;DHT22;685;47.196;11.880;2023-03-12T00:29:13;2.30;99.90
1383;DHT22;685;47.196;11.880;2023-03-12T00:31:41;2.30;99.90
1383;DHT22;685;47.196;11.880;2023-03-12T00:34:08;2.30;99.90
1383;DHT22;685;47.196;11.880;2023-03-12T00:36:35;2.60;99.90
1383;DHT22;685;47.196;11.880;2023-03-12T00:39:03;2.70;99.90
1383;DHT22;685;47.196;11.880;2023-03-12T00:41:30;2.80;99.90
1383;DHT22;685;47.196;11.880;2023-03-12T00:43:57;2.80;99.90
1383;DHT22;685;47.196;11.880;2023-03-12T00:46:24;2.80;99.90
1383;DHT22;685;47.196;11.880;2023-03-12T00:48:52;2.80;99.90
1383;DHT22;685;47.196;11.880;2023-03-12T00:51:19;2.50;99.90
1383;DHT22;685;47.196;11.880;2023-03-12T00:53:46;2.50;99.90
1383;DHT22;685;47.196;11.880;2023-03-12T00:56:13;2.60;99.90
1383;DHT22;685;47.196;11.880;2023-03-12T00:58:41;2.50;99.90
1383;DHT22;685;47.196;11.880;2023-03-12T01:01:08;2.70;99.90
1383;DHT22;685;47.196;11.880;2023-03-12T01:03:35;2.80;99.90
1383;DHT22;685;47.196;11.880;2023-03-12T01:06:04;2.80;99.90
1383;DHT22;685;47.196;11.880;2023-03-12T01:08:31;2.50;99.90
1383;DHT22;685;47.196;11.880;2023-03-12T01:10:58;2.70;99.90
1383;DHT22;685;47.196;11.880;2023-03-12T01:13:25;2.70;99.90
1383;DHT22;685;47.196;11.880;2023-03-12T01:15:52;2.40;99.90
1383;DHT22;685;47.196;11.880;2023-03-12T01:18:19;2.60;99.90
1383;DHT22;685;47.196;11.880;2023-03-12T01:20:46;2.50;99.90
1383;DHT22;685;47.196;11.880;2023-03-12T01:23:15;2.60;99.90
1383;DHT22;685;47.196;11.880;2023-03-12T01:25:42;2.70;99.90
1383;DHT22;685;47.196;11.880;2023-03-12T01:28:09;2.90;99.90
1383;DHT22;685;47.196;11.880;2023-03-12T01:30:35;3.00;99.90
1383;DHT22;685;47.196;11.880;2023-03-12T01:33:02;2.80;99.90
1383;DHT22;685;47.196;11.880;2023-03-12T01:35:29;2.60;99.90
1383;DHT22;685;47.196;11.880;2023-03-12T01:37:56;2.70;99.90
1383;DHT22;685;47.196;11.880;2023-03-12T01:40:25;2.90;99.90
1383;DHT22;685;47.196;11.880;2023-03-12T01:42:54;3.10;99.90
1383;DHT22;685;47.196;11.880;2023-03-12T01:45:55;3.10;99.90
1383;DHT22;685;47.196;11.880;2023-03-12T01:48:25;3.20;99.90
1383;DHT22;685;47.196;11.880;2023-03-12T01:50:53;3.30;99.90
1383;DHT22;685;47.196;11.880;2023-03-12T01:53:19;3.40;99.90
1383;DHT22;685;47.196;11.880;2023-03-12T01:55:49;3.40;99.90
1383;DHT22;685;47.196;11.880;2023-03-12T01:58:16;3.40;99.90
1383;DHT22;685;47.196;11.880;2023-03-12T02:00:44;3.30;99.90
1383;DHT22;685;47.196;11.880;2023-03-12T02:03:11;3.30;99.90
1383;DHT22;685;47.196;11.880;2023-03-12T02:05:44;3.00;99.90
1383;DHT22;685;47.196;11.880;2023-03-12T02:08:14;2.60;99.90
1383;DHT22;685;47.196;11.880;2023-03-12T02:10:42;2.80;99.90
1383;DHT22;685;47.196;11.880;2023-03-12T02:13:11;2.70;99.90
1383;DHT22;685;47.196;11.880;2023-03-12T02:15:38;2.30;99.90
1383;DHT22;685;47.196;11.880;2023-03-12T02:18:08;2.10;99.90
1383;DHT22;685;47.196;11.880;2023-03-12T02:20:41;1.90;99.90
1383;DHT22;685;47.196;11.880;2023-03-12T02:23:17;2.10;99.90
1383;DHT22;685;47.196;11.880;2023-03-12T02:25:50;2.10;99.90
1383;DHT22;685;47.196;11.880;2023-03-12T02:28:19;2.30;99.90
1383;DHT22;685;47.196;11.880;2023-03-12T02:30:50;2.50;99.90
1383;DHT22;685;47.196;11.880;2023-03-12T02:33:18;2.70;99.90
1383;DHT22;685;47.196;11.880;2023-03-12T02:35:46;2.90;99.90
1383;DHT22;685;47.196;11.880;2023-03-12T02:38:33;3.00;99.90
1383;DHT22;685;47.196;11.880;2023-03-12T02:41:05;3.20;99.90
1383;DHT22;685;47.196;11.880;2023-03-12T02:43:34;3.20;99.90
1383;DHT22;685;47.196;11.880;2023-03-12T02:46:01;3.30;99.90
1383;DHT22;685;47.196;11.880;2023-03-12T02:48:28;3.30;99.90
1383;DHT22;685;47.196;11.880;2023-03-12T02:50:55;3.20;99.90
1383;DHT22;685;47.196;11.880;2023-03-12T02:53:22;3.10;99.90
1383;DHT22;685;47.196;11.880;2023-03-12T02:55:49;3.10;99.90
1383;DHT22;685;47.196;11.880;2023-03-12T02:58:17;3.20;99.90
1383;DHT22;685;47.196;11.880;2023-03-12T03:00:44;3.30;99.90
1383;DHT22;685;47.196;11.880;2023-03-12T03:03:11;3.40;99.90
1383;DHT22;685;47.196;11.880;2023-03-12T03:05:37;3.40;99.90
1383;DHT22;685;47.196;11.880;2023-03-12T03:08:05;3.30;99.90
1383;DHT22;685;47.196;11.880;2023-03-12T03:10:32;3.40;99.90
1383;DHT22;685;47.196;11.880;2023-03-12T03:12:59;3.10;99.90
1383;DHT22;685;47.196;11.880;2023-03-12T03:15:28;2.60;99.90
1383;DHT22;685;47.196;11.880;2023-03-12T03:17:55;2.30;99.90
1383;DHT22;685;47.196;11.880;2023-03-12T03:20:23;2.00;99.90
1383;DHT22;685;47.196;11.880;2023-03-12T03:22:51;2.10;99.90
1383;DHT22;685;47.196;11.880;2023-03-12T03:25:18;2.30;99.90
1383;DHT22;685;47.196;11.880;2023-03-12T03:27:46;2.40;99.90
1383;DHT22;685;47.196;11.880;2023-03-12T03:30:14;2.50;99.90
1383;DHT22;685;47.196;11.880;2023-03-12T03:32:43;2.80;99.90
1383;DHT22;685;47.196;11.880;2023-03-12T03:35:10;2.60;99.90
1383;DHT22;685;47.196;11.880;2023-03-12T03:37:37;2.40;99.90
1383;DHT22;685;47.196;11.880;2023-03-12T03:40:05;2.40;99.90
1383;DHT22;685;47.196;11.880;2023-03-12T03:42:36;2.60;99.90
1383;DHT22;685;47.196;11.880;2023-03-12T03:45:04;2.60;99.90
1383;DHT22;685;47.196;11.880;2023-03-12T03:47:31;2.40;99.90
1383;DHT22;685;47.196;11.880;2023-03-12T03:49:59;2.40;99.90
1383;DHT22;685;47.196;11.880;2023-03-12T03:52:26;2.10;99.90
1383;DHT22;685;47.196;11.880;2023-03-12T03:54:53;2.20;99.90
1383;DHT22;685;47.196;11.880;2023-03-12T03:57:21;2.30;99.90
1383;DHT22;685;47.196;11.880;2023-03-12T03:59:48;2.60;99.90
1383;DHT22;685;47.196;11.880;2023-03-12T04:02:15;2.40;99.90
1383;DHT22;685;47.196;11.880;2023-03-12T04:04:43;2.50;99.90
1383;DHT22;685;47.196;11.880;2023-03-12T04:07:11;2.50;99.90
1383;DHT22;685;47.196;11.880;2023-03-12T04:09:38;2.60;99.90
1383;DHT22;685;47.196;11.880;2023-03-12T04:12:05;2.80;99.90
1383;DHT22;685;47.196;11.880;2023-03-12T04:14:32;2.70;99.90
1383;DHT22;685;47.196;11.880;2023-03-12T04:16:59;2.70;99.90
1383;DHT22;685;47.196;11.880;2023-03-12T04:19:26;2.40;99.90
1383;DHT22;685;47.196;11.880;2023-03-12T04:21:53;2.30;99.90
1383;DHT22;685;47.196;11.880;2023-03-12T04:24:21;2.40;99.90
1383;DHT22;685;47.196;11.880;2023-03-12T04:26:48;2.50;99.90
1383;DHT22;685;47.196;11.880;2023-03-12T04:29:16;2.50;99.90
1383;DHT22;685;47.196;11.880;2023-03-12T04:31:43;2.60;99.90
1383;DHT22;685;47.196;11.880;2023-03-12T04:34:10;2.60;99.90
1383;DHT22;685;47.196;11.880;2023-03-12T04:36:37;2.60;99.90
1383;DHT22;685;47.196;11.880;2023-03-12T04:39:04;2.50;99.90
1383;DHT22;685;47.196;11.880;2023-03-12T04:41:34;2.30;99.90
1383;DHT22;685;47.196;11.880;2023-03-12T04:44:01;2.40;99.90
1383;DHT22;685;47.196;11.880;2023-03-12T04:46:28;2.60;99.90
1383;DHT22;685;47.196;11.880;2023-03-12T04:48:55;2.70;99.90
1383;DHT22;685;47.196;11.880;2023-03-12T04:51:27;2.60;99.90
1383;DHT22;685;47.196;11.880;2023-03-12T04:53:54;2.70;99.90
1383;DHT22;685;47.196;11.880;2023-03-12T04:56:21;2.60;99.90
1383;DHT22;685;47.196;11.880;2023-03-12T04:58:50;2.60;99.90
1383;DHT22;685;47.196;11.880;2023-03-12T05:01:21;2.50;99.90
1383;DHT22;685;47.196;11.880;2023-03-12T05:03:49;2.60;99.90
1383;DHT22;685;47.196;11.880;2023-03-12T05:06:16;2.40;99.90
1383;DHT22;685;47.196;11.880;2023-03-12T05:08:44;2.50;99.90
1383;DHT22;685;47.196;11.880;2023-03-12T05:11:11;2.20;99.90
1383;DHT22;685;47.196;11.880;2023-03-12T05:13:38;2.30;99.90
1383;DHT22;685;47.196;11.880;2023-03-12T05:16:07;2.40;99.90
1383;DHT22;685;47.196;11.880;2023-03-12T05:18:35;2.40;99.90
1383;DHT22;685;47.196;11.880;2023-03-12T05:21:04;2.30;99.90
1383;DHT22;685;47.196;11.880;2023-03-12T05:23:31;2.10;99.90
1383;DHT22;685;47.196;11.880;2023-03-12T05:25:58;2.30;99.90
1383;DHT22;685;47.196;11.880;2023-03-12T05:28:26;2.40;99.90
1383;DHT22;685;47.196;11.880;2023-03-12T05:30:54;2.40;99.90
1383;DHT22;685;47.196;11.880;2023-03-12T05:33:22;2.20;99.90
1383;DHT22;685;47.196;11.880;2023-03-12T05:35:49;1.90;99.90
1383;DHT22;685;47.196;11.880;2023-03-12T05:38:17;1.90;99.90
1383;DHT22;685;47.196;11.880;2023-03-12T05:40:50;1.90;99.90
1383;DHT22;685;47.196;11.880;2023-03-12T05:43:17;2.10;99.90
1383;DHT22;685;47.196;11.880;2023-03-12T05:45:44;2.30;99.90
1383;DHT22;685;47.196;11.880;2023-03-12T05:48:11;2.10;99.90
1383;DHT22;685;47.196;11.880;2023-03-12T05:50:40;2.20;99.90
1383;DHT22;685;47.196;11.880;2023-03-12T05:53:07;2.40;99.90
1383;DHT22;685;47.196;11.880;2023-03-12T05:55:34;2.40;99.90
1383;DHT22;685;47.196;11.880;2023-03-12T05:58:01;2.30;99.90
1383;DHT22;685;47.196;11.880;2023-03-12T06:00:29;2.10;99.90
1383;DHT22;685;47.196;11.880;2023-03-12T06:02:56;2.40;99.90
1383;DHT22;685;47.196;11.880;2023-03-12T06:05:23;2.20;99.90
1383;DHT22;685;47.196;11.880;2023-03-12T06:07:51;2.10;99.90
1383;DHT22;685;47.196;11.880;2023-03-12T06:10:18;2.00;99.90
1383;DHT22;685;47.196;11.880;2023-03-12T06:12:45;2.30;99.90
1383;DHT22;685;47.196;11.880;2023-03-12T06:15:12;2.30;99.90
1383;DHT22;685;47.196;11.880;2023-03-12T06:17:39;2.10;99.90
1383;DHT22;685;47.196;11.880;2023-03-12T06:20:07;2.30;99.90
1383;DHT22;685;47.196;11.880;2023-03-12T06:22:34;2.30;99.90
1383;DHT22;685;47.196;11.880;2023-03-12T06:25:03;2.40;99.90
1383;DHT22;685;47.196;11.880;2023-03-12T06:27:31;2.60;99.90
1383;DHT22;685;47.196;11.880;2023-03-12T06:29:58;2.80;99.90
1383;DHT22;685;47.196;11.880;2023-03-12T06:32:24;2.90;99.90
1383;DHT22;685;47.196;11.880;2023-03-12T06:34:51;2.90;99.90
1383;DHT22;685;47.196;11.880;2023-03-12T06:37:18;2.90;99.90
1383;DHT22;685;47.196;11.880;2023-03-12T06:39:46;3.00;99.90
1383;DHT22;685;47.196;11.880;2023-03-12T06:42:14;3.00;99.90
1383;DHT22;685;47.196;11.880;2023-03-12T06:44:42;3.10;99.90
1383;DHT22;685;47.196;11.880;2023-03-12T06:47:09;2.90;99.90
1383;DHT22;685;47.196;11.880;2023-03-12T06:49:36;2.40;99.90
1383;DHT22;685;47.196;11.880;2023-03-12T06:52:04;2.40;99.90
1383;DHT22;685;47.196;11.880;2023-03-12T06:54:31;2.70;99.90
1383;DHT22;685;47.196;11.880;2023-03-12T06:56:58;2.90;99.90
1383;DHT22;685;47.196;11.880;2023-03-12T06:59:26;3.00;99.90
1383;DHT22;685;47.196;11.880;2023-03-12T07:01:55;2.80;99.90
1383;DHT22;685;47.196;11.880;2023-03-12T07:04:22;2.90;99.90
1383;DHT22;685;47.196;11.880;2023-03-12T07:06:48;2.90;99.90
1383;DHT22;685;47.196;11.880;2023-03-12T07:09:16;2.90;99.90
1383;DHT22;685;47.196;11.880;2023-03-12T07:11:43;3.00;99.90
1383;DHT22;685;47.196;11.880;2023-03-12T07:14:10;3.10;99.90
1383;DHT22;685;47.196;11.880;2023-03-12T07:16:38;3.10;99.90
1383;DHT22;685;47.196;11.880;2023-03-12T07:19:05;3.20;99.90
1383;DHT22;685;47.196;11.880;2023-03-12T07:21:32;3.20;99.90
1383;DHT22;685;47.196;11.880;2023-03-12T07:23:59;3.30;99.90
1383;DHT22;685;47.196;11.880;2023-03-12T07:26:31;3.30;99.90
1383;DHT22;685;47.196;11.880;2023-03-12T07:28:58;3.30;99.90
1383;DHT22;685;47.196;11.880;2023-03-12T07:31:25;3.30;99.90
1383;DHT22;685;47.196;11.880;2023-03-12T07:33:54;3.30;99.90
1383;DHT22;685;47.196;11.880;2023-03-12T07:36:21;3.30;99.90
1383;DHT22;685;47.196;11.880;2023-03-12T07:38:48;3.20;99.90
1383;DHT22;685;47.196;11.880;2023-03-12T07:41:14;3.10;99.90
1383;DHT22;685;47.196;11.880;2023-03-12T07:43:41;2.80;99.90
1383;DHT22;685;47.196;11.880;2023-03-12T07:46:08;3.00;99.90
1383;DHT22;685;47.196;11.880;2023-03-12T07:48:35;3.10;99.90
1383;DHT22;685;47.196;11.880;2023-03-12T07:51:05;3.30;99.90
1383;DHT22;685;47.196;11.880;2023-03-12T07:53:32;3.40;99.90
1383;DHT22;685;47.196;11.880;2023-03-12T07:55:59;3.10;99.90
1383;DHT22;685;47.196;11.880;2023-03-12T07:58:25;3.10;99.90
1383;DHT22;685;47.196;11.880;2023-03-12T08:00:54;2.80;99.90
1383;DHT22;685;47.196;11.880;2023-03-12T08:03:21;2.90;99.90
1383;DHT22;685;47.196;11.880;2023-03-12T08:05:58;3.00;99.90
1383;DHT22;685;47.196;11.880;2023-03-12T08:08:27;3.20;99.90
1383;DHT22;685;47.196;11.880;2023-03-12T08:10:56;3.40;99.90
1383;DHT22;685;47.196;11.880;2023-03-12T08:13:23;3.50;99.90
1383;DHT22;685;47.196;11.880;2023-03-12T08:15:50;3.50;99.90
1383;DHT22;685;47.196;11.880;2023-03-12T08:18:18;3.50;99.90
1383;DHT22;685;47.196;11.880;2023-03-12T08:20:48;3.50;99.90
1383;DHT22;685;47.196;11.880;2023-03-12T08:23:15;3.50;99.90
1383;DHT22;685;47.196;11.880;2023-03-12T08:25:44;3.50;99.90
1383;DHT22;685;47.196;11.880;2023-03-12T08:28:11;3.40;99.90
1383;DHT22;685;47.196;11.880;2023-03-12T08:30:38;3.50;99.90
1383;DHT22;685;47.196;11.880;2023-03-12T08:33:05;3.50;99.90
1383;DHT22;685;47.196;11.880;2023-03-12T08:35:32;3.00;99.90
1383;DHT22;685;47.196;11.880;2023-03-12T08:37:59;3.10;99.90
1383;DHT22;685;47.196;11.880;2023-03-12T08:40:25;3.20;99.90
1383;DHT22;685;47.196;11.880;2023-03-12T08:42:54;3.50;99.90
1383;DHT22;685;47.196;11.880;2023-03-12T08:45:21;3.60;99.90
1383;DHT22;685;47.196;11.880;2023-03-12T08:47:48;3.80;99.90
1383;DHT22;685;47.196;11.880;2023-03-12T08:50:15;3.50;99.90
1383;DHT22;685;47.196;11.880;2023-03-12T08:52:43;3.70;99.90
1383;DHT22;685;47.196;11.880;2023-03-12T08:55:10;3.70;99.90
1383;DHT22;685;47.196;11.880;2023-03-12T08:57:37;3.60;99.90
1383;DHT22;685;47.196;11.880;2023-03-12T09:00:07;3.60;99.90
1383;DHT22;685;47.196;11.880;2023-03-12T09:02:40;3.60;99.90
1383;DHT22;685;47.196;11.880;2023-03-12T09:05:08;3.70;99.90
1383;DHT22;685;47.196;11.880;2023-03-12T09:07:36;3.80;99.90
1383;DHT22;685;47.196;11.880;2023-03-12T09:10:03;3.80;99.90
1383;DHT22;685;47.196;11.880;2023-03-12T09:12:30;3.40;99.90
1383;DHT22;685;47.196;11.880;2023-03-12T09:14:57;3.30;99.90
1383;DHT22;685;47.196;11.880;2023-03-12T09:17:27;3.60;99.90
1383;DHT22;685;47.196;11.880;2023-03-12T09:19:54;3.60;99.90
1383;DHT22;685;47.196;11.880;2023-03-12T09:22:21;3.60;99.90
1383;DHT22;685;47.196;11.880;2023-03-12T09:24:48;3.80;99.90
1383;DHT22;685;47.196;11.880;2023-03-12T09:27:15;3.80;99.90
1383;DHT22;685;47.196;11.880;2023-03-12T09:29:42;3.80;99.90
1383;DHT22;685;47.196;11.880;2023-03-12T09:32:09;3.80;99.90
1383;DHT22;685;47.196;11.880;2023-03-12T09:34:37;3.80;99.90
1383;DHT22;685;47.196;11.880;2023-03-12T09:37:04;3.70;99.90
1383;DHT22;685;47.196;11.880;2023-03-12T09:39:30;3.60;99.90
1383;DHT22;685;47.196;11.880;2023-03-12T09:41:58;3.50;99.90
1383;DHT22;685;47.196;11.880;2023-03-12T09:44:31;3.40;99.90
1383;DHT22;685;47.196;11.880;2023-03-12T09:47:02;3.60;99.90
1383;DHT22;685;47.196;11.880;2023-03-12T09:49:34;3.20;99.90
1383;DHT22;685;47.196;11.880;2023-03-12T09:52:12;3.40;99.90
1383;DHT22;685;47.196;11.880;2023-03-12T09:54:46;3.60;99.90
1383;DHT22;685;47.196;11.880;2023-03-12T09:57:21;3.60;99.90
1383;DHT22;685;47.196;11.880;2023-03-12T09:59:49;3.60;99.90
1383;DHT22;685;47.196;11.880;2023-03-12T10:02:39;3.60;99.90
1383;DHT22;685;47.196;11.880;2023-03-12T10:05:16;3.50;99.90
1383;DHT22;685;47.196;11.880;2023-03-12T10:07:49;3.50;99.90
1383;DHT22;685;47.196;11.880;2023-03-12T10:10:38;3.50;99.90
1383;DHT22;685;47.196;11.880;2023-03-12T10:13:17;3.70;99.90
1383;DHT22;685;47.196;11.880;2023-03-12T10:15:58;3.80;99.90
1383;DHT22;685;47.196;11.880;2023-03-12T10:18:37;3.60;99.90
1383;DHT22;685;47.196;11.880;2023-03-12T10:21:16;3.40;99.90
1383;DHT22;685;47.196;11.880;2023-03-12T10:23:59;3.40;99.90
1383;DHT22;685;47.196;11.880;2023-03-12T10:26:32;3.60;99.90
1383;DHT22;685;47.196;11.880;2023-03-12T10:29:05;3.80;99.90
1383;DHT22;685;47.196;11.880;2023-03-12T10:31:40;3.90;99.90
1383;DHT22;685;47.196;11.880;2023-03-12T10:34:16;4.10;99.90
1383;DHT22;685;47.196;11.880;2023-03-12T10:36:45;4.30;99.90
1383;DHT22;685;47.196;11.880;2023-03-12T10:39:15;4.30;99.90
1383;DHT22;685;47.196;11.880;2023-03-12T10:41:43;4.40;99.90
1383;DHT22;685;47.196;11.880;2023-03-12T10:44:17;4.40;99.90
1383;DHT22;685;47.196;11.880;2023-03-12T10:47:03;4.10;99.90
1383;DHT22;685;47.196;11.880;2023-03-12T10:49:33;4.30;99.90
1383;DHT22;685;47.196;11.880;2023-03-12T10:52:03;4.50;99.90
1383;DHT22;685;47.196;11.880;2023-03-12T10:54:34;4.60;99.90
1383;DHT22;685;47.196;11.880;2023-03-12T10:57:02;4.60;99.90
1383;DHT22;685;47.196;11.880;2023-03-12T10:59:31;4.70;99.90
1383;DHT22;685;47.196;11.880;2023-03-12T11:01:59;4.70;99.90
1383;DHT22;685;47.196;11.880;2023-03-12T11:04:28;4.60;99.90
1383;DHT22;685;47.196;11.880;2023-03-12T11:07:17;4.60;99.90
1383;DHT22;685;47.196;11.880;2023-03-12T11:10:11;4.70;99.90
1383;DHT22;685;47.196;11.880;2023-03-12T11:12:38;4.90;99.90
1383;DHT22;685;47.196;11.880;2023-03-12T11:15:19;4.90;99.90
1383;DHT22;685;47.196;11.880;2023-03-12T11:17:47;4.90;99.90
1383;DHT22;685;47.196;11.880;2023-03-12T11:20:24;4.90;99.90
1383;DHT22;685;47.196;11.880;2023-03-12T11:22:51;4.80;99.90
1383;DHT22;685;47.196;11.880;2023-03-12T11:25:24;4.70;99.90
1383;DHT22;685;47.196;11.880;2023-03-12T11:27:53;4.70;99.90
1383;DHT22;685;47.196;11.880;2023-03-12T11:30:23;4.50;99.90
1383;DHT22;685;47.196;11.880;2023-03-12T11:32:52;4.80;99.90
1383;DHT22;685;47.196;11.880;2023-03-12T11:35:27;4.90;99.90
1383;DHT22;685;47.196;11.880;2023-03-12T11:38:00;5.00;99.90
1383;DHT22;685;47.196;11.880;2023-03-12T11:40:47;5.00;99.90
1383;DHT22;685;47.196;11.880;2023-03-12T11:43:28;5.00;99.90
1383;DHT22;685;47.196;11.880;2023-03-12T11:46:11;5.20;99.90
1383;DHT22;685;47.196;11.880;2023-03-12T11:48:49;5.30;99.90
1383;DHT22;685;47.196;11.880;2023-03-12T11:51:26;5.40;99.90
1383;DHT22;685;47.196;11.880;2023-03-12T11:54:18;5.50;99.90
1383;DHT22;685;47.196;11.880;2023-03-12T11:56:54;5.40;99.90
1383;DHT22;685;47.196;11.880;2023-03-12T11:59:34;5.60;99.90
1383;DHT22;685;47.196;11.880;2023-03-12T12:02:16;5.60;99.90
1383;DHT22;685;47.196;11.880;2023-03-12T12:05:09;5.60;99.90
1383;DHT22;685;47.196;11.880;2023-03-12T12:07:52;5.70;99.90
1383;DHT22;685;47.196;11.880;2023-03-12T12:10:26;5.60;99.90
1383;DHT22;685;47.196;11.880;2023-03-12T12:13:03;5.60;99.90
1383;DHT22;685;47.196;11.880;2023-03-12T12:15:36;5.60;99.90
1383;DHT22;685;47.196;11.880;2023-03-12T12:18:19;5.70;99.90
1383;DHT22;685;47.196;11.880;2023-03-12T12:20:55;5.10;99.90
1383;DHT22;685;47.196;11.880;2023-03-12T12:23:32;4.90;99.90
1383;DHT22;685;47.196;11.880;2023-03-12T12:26:05;4.80;99.90
1383;DHT22;685;47.196;11.880;2023-03-12T12:28:58;5.00;99.90
1383;DHT22;685;47.196;11.880;2023-03-12T12:31:34;5.20;99.90
1383;DHT22;685;47.196;11.880;2023-03-12T12:37:21;5.50;99.90
1383;DHT22;685;47.196;11.880;2023-03-12T12:39:53;5.30;99.90
1383;DHT22;685;47.196;11.880;2023-03-12T12:42:25;5.20;99.90
1383;DHT22;685;47.196;11.880;2023-03-12T12:44:55;5.40;99.90
1383;DHT22;685;47.196;11.880;2023-03-12T12:47:32;5.40;99.90
1383;DHT22;685;47.196;11.880;2023-03-12T12:50:00;5.50;99.90
1383;DHT22;685;47.196;11.880;2023-03-12T12:52:28;5.50;99.90
1383;DHT22;685;47.196;11.880;2023-03-12T12:55:00;5.50;99.90
1383;DHT22;685;47.196;11.880;2023-03-12T12:57:36;5.60;99.90
1383;DHT22;685;47.196;11.880;2023-03-12T13:00:22;5.40;99.90
1383;DHT22;685;47.196;11.880;2023-03-12T13:02:55;5.50;99.90
1383;DHT22;685;47.196;11.880;2023-03-12T13:05:26;5.50;99.90
1383;DHT22;685;47.196;11.880;2023-03-12T13:07:57;5.60;99.90
1383;DHT22;685;47.196;11.880;2023-03-12T13:10:41;5.60;99.90
1383;DHT22;685;47.196;11.880;2023-03-12T13:13:17;5.70;99.90
1383;DHT22;685;47.196;11.880;2023-03-12T13:15:49;5.50;99.90
1383;DHT22;685;47.196;11.880;2023-03-12T13:18:22;5.70;99.90
1383;DHT22;685;47.196;11.880;2023-03-12T13:21:11;5.80;99.90
1383;DHT22;685;47.196;11.880;2023-03-12T13:23:56;6.10;99.90
1383;DHT22;685;47.196;11.880;2023-03-12T13:26:36;6.20;99.90
1383;DHT22;685;47.196;11.880;2023-03-12T13:29:19;6.20;99.90
1383;DHT22;685;47.196;11.880;2023-03-12T13:31:49;6.30;99.90
1383;DHT22;685;47.196;11.880;2023-03-12T13:34:42;6.30;99.90
1383;DHT22;685;47.196;11.880;2023-03-12T13:37:26;6.30;99.90
1383;DHT22;685;47.196;11.880;2023-03-12T13:39:59;6.40;99.90
1383;DHT22;685;47.196;11.880;2023-03-12T13:42:40;6.50;99.90
1383;DHT22;685;47.196;11.880;2023-03-12T13:45:27;6.40;99.90
1383;DHT22;685;47.196;11.880;2023-03-12T13:48:00;6.40;99.90
1383;DHT22;685;47.196;11.880;2023-03-12T13:50:29;6.40;99.90
1383;DHT22;685;47.196;11.880;2023-03-12T13:53:04;6.20;99.90
1383;DHT22;685;47.196;11.880;2023-03-12T13:55:34;6.10;99.90
1383;DHT22;685;47.196;11.880;2023-03-12T13:58:12;6.10;99.90
1383;DHT22;685;47.196;11.880;2023-03-12T14:00:47;6.10;99.90
1383;DHT22;685;47.196;11.880;2023-03-12T14:03:22;6.10;99.90
1383;DHT22;685;47.196;11.880;2023-03-12T14:05:59;6.20;99.90
1383;DHT22;685;47.196;11.880;2023-03-12T14:08:48;6.30;99.90
1383;DHT22;685;47.196;11.880;2023-03-12T14:11:31;6.40;99.90
1383;DHT22;685;47.196;11.880;2023-03-12T14:14:31;6.40;99.90
1383;DHT22;685;47.196;11.880;2023-03-12T14:17:03;6.40;99.90
1383;DHT22;685;47.196;11.880;2023-03-12T14:19:33;6.40;99.90
1383;DHT22;685;47.196;11.880;2023-03-12T14:22:04;6.40;99.90
1383;DHT22;685;47.196;11.880;2023-03-12T14:24:33;6.40;99.90
1383;DHT22;685;47.196;11.880;2023-03-12T14:27:04;6.50;99.90
1383;DHT22;685;47.196;11.880;2023-03-12T14:29:35;6.50;99.90
1383;DHT22;685;47.196;11.880;2023-03-12T14:32:05;6.50;99.90
1383;DHT22;685;47.196;11.880;2023-03-12T14:34:39;6.50;99.90
1383;DHT22;685;47.196;11.880;2023-03-12T14:37:10;6.50;99.90
1383;DHT22;685;47.196;11.880;2023-03-12T14:42:19;6.50;99.90
1383;DHT22;685;47.196;11.880;2023-03-12T14:44:56;6.50;99.90
1383;DHT22;685;47.196;11.880;2023-03-12T14:47:23;6.60;99.90
1383;DHT22;685;47.196;11.880;2023-03-12T14:49:51;6.60;99.90
1383;DHT22;685;47.196;11.880;2023-03-12T14:52:22;6.50;99.90
1383;DHT22;685;47.196;11.880;2023-03-12T14:54:53;6.60;99.90
1383;DHT22;685;47.196;11.880;2023-03-12T14:57:20;6.60;99.90
1383;DHT22;685;47.196;11.880;2023-03-12T14:59:51;6.60;99.90
1383;DHT22;685;47.196;11.880;2023-03-12T15:02:19;6.60;99.90
1383;DHT22;685;47.196;11.880;2023-03-12T15:04:48;6.60;99.90
1383;DHT22;685;47.196;11.880;2023-03-12T15:07:20;6.60;99.90
1383;DHT22;685;47.196;11.880;2023-03-12T15:09:49;6.60;99.90
1383;DHT22;685;47.196;11.880;2023-03-12T15:12:19;6.60;99.90
1383;DHT22;685;47.196;11.880;2023-03-12T15:14:47;6.50;99.90
1383;DHT22;685;47.196;11.880;2023-03-12T15:17:17;6.40;99.90
1383;DHT22;685;47.196;11.880;2023-03-12T15:19:45;6.40;99.90
1383;DHT22;685;47.196;11.880;2023-03-12T15:22:14;6.50;99.90
1383;DHT22;685;47.196;11.880;2023-03-12T15:24:44;6.50;99.90
1383;DHT22;685;47.196;11.880;2023-03-12T15:27:31;6.60;99.90
1383;DHT22;685;47.196;11.880;2023-03-12T15:29:59;6.60;99.90
1383;DHT22;685;47.196;11.880;2023-03-12T15:32:27;6.60;99.90
1383;DHT22;685;47.196;11.880;2023-03-12T15:34:56;6.70;99.90
1383;DHT22;685;47.196;11.880;2023-03-12T15:37:24;6.70;99.90
1383;DHT22;685;47.196;11.880;2023-03-12T15:40:00;6.70;99.90
1383;DHT22;685;47.196;11.880;2023-03-12T15:42:36;6.70;99.90
1383;DHT22;685;47.196;11.880;2023-03-12T15:45:04;6.80;99.90
1383;DHT22;685;47.196;11.880;2023-03-12T15:47:38;6.70;99.90
1383;DHT22;685;47.196;11.880;2023-03-12T15:50:11;6.70;99.90
1383;DHT22;685;47.196;11.880;2023-03-12T15:52:57;6.70;99.90
1383;DHT22;685;47.196;11.880;2023-03-12T15:55:27;6.70;99.90
1383;DHT22;685;47.196;11.880;2023-03-12T15:57:56;6.70;99.90
1383;DHT22;685;47.196;11.880;2023-03-12T16:00:25;6.70;99.90
1383;DHT22;685;47.196;11.880;2023-03-12T16:02:55;6.70;99.90
1383;DHT22;685;47.196;11.880;2023-03-12T16:05:25;6.80;99.90
1383;DHT22;685;47.196;11.880;2023-03-12T16:07:52;6.70;99.90
1383;DHT22;685;47.196;11.880;2023-03-12T16:10:22;6.70;99.90
1383;DHT22;685;47.196;11.880;2023-03-12T16:12:55;6.80;99.90
1383;DHT22;685;47.196;11.880;2023-03-12T16:15:28;6.80;99.90
1383;DHT22;685;47.196;11.880;2023-03-12T16:17:56;6.80;99.90
1383;DHT22;685;47.196;11.880;2023-03-12T16:20:23;6.80;99.90
1383;DHT22;685;47.196;11.880;2023-03-12T16:22:50;6.80;99.90
1383;DHT22;685;47.196;11.880;2023-03-12T16:25:16;6.70;99.90
1383;DHT22;685;47.196;11.880;2023-03-12T16:27:46;6.60;99.90
1383;DHT22;685;47.196;11.880;2023-03-12T16:30:26;6.50;99.90
1383;DHT22;685;47.196;11.880;2023-03-12T16:32:53;6.50;99.90
1383;DHT22;685;47.196;11.880;2023-03-12T16:35:20;6.30;99.90
1383;DHT22;685;47.196;11.880;2023-03-12T16:37:48;6.10;99.90
1383;DHT22;685;47.196;11.880;2023-03-12T16:40:16;6.00;99.90
1383;DHT22;685;47.196;11.880;2023-03-12T16:42:45;5.90;99.90
1383;DHT22;685;47.196;11.880;2023-03-12T16:45:14;6.10;99.90